Time;durP1;ratioP1;P1;durP2;ratioP2;P2;SDS_P1;SDS_P2;PMS_P1;PMS_P2;Temp;Humidity;BMP_temperature;BMP_pressure;BME280_temperature;BME280_humidity;BME280_pressure;Samples;Min_cycle;Max_cycle;Signal;HPM_P1;HPM_P2
2021/12/26 00:01:06;;;;;;;;;;;4.30;99.90;;;;;;5060202;28;19929;-49
2021/12/26 00:03:34;;;;;;;;;;;4.30;99.90;;;;;;5064118;28;19932;-49
2021/12/26 00:06:04;;;;;;;;;;;4.20;99.90;;;;;;5050278;28;19965;-50
2021/12/26 00:08:31;;;;;;;;;;;4.30;99.90;;;;;;5069270;28;20059;-50
2021/12/26 00:10:58;;;;;;;;;;;4.20;99.90;;;;;;5070526;28;20007;-49
2021/12/26 00:13:25;;;;;;;;;;;4.20;99.90;;;;;;5068764;28;20289;-50
2021/12/26 00:15:51;;;;;;;;;;;4.10;99.90;;;;;;5068797;28;19928;-49
2021/12/26 00:18:20;;;;;;;;;;;4.10;99.90;;;;;;5080628;28;19953;-50
2021/12/26 00:20:47;;;;;;;;;;;4.10;99.90;;;;;;5050155;28;19936;-50
2021/12/26 00:23:14;;;;;;;;;;;3.90;99.90;;;;;;5070376;28;19928;-50
2021/12/26 00:25:41;;;;;;;;;;;3.90;99.90;;;;;;5058958;28;19971;-50
2021/12/26 00:28:07;;;;;;;;;;;3.80;99.90;;;;;;5069347;28;20027;-50
2021/12/26 00:30:34;;;;;;;;;;;3.80;99.90;;;;;;5069517;28;20341;-49
2021/12/26 00:33:01;;;;;;;;;;;3.90;99.90;;;;;;5069989;28;19978;-50
2021/12/26 00:35:29;;;;;;;;;;;3.90;99.90;;;;;;5072283;28;20027;-50
2021/12/26 00:37:56;;;;;;;;;;;4.00;99.90;;;;;;5068695;28;20440;-50
2021/12/26 00:40:23;;;;;;;;;;;4.00;99.90;;;;;;5069137;28;20065;-50
2021/12/26 00:42:50;;;;;;;;;;;4.00;99.90;;;;;;5068853;28;19924;-50
2021/12/26 00:45:17;;;;;;;;;;;4.00;99.90;;;;;;5068330;28;19925;-50
2021/12/26 00:47:44;;;;;;;;;;;4.00;99.90;;;;;;5067587;28;19997;-49
2021/12/26 00:50:12;;;;;;;;;;;4.00;99.90;;;;;;5070611;28;19928;-49
2021/12/26 00:52:40;;;;;;;;;;;4.00;99.90;;;;;;5066242;28;19924;-49
2021/12/26 00:55:08;;;;;;;;;;;3.90;99.90;;;;;;5068379;28;19924;-49
2021/12/26 00:57:36;;;;;;;;;;;3.90;99.90;;;;;;5069338;28;19924;-50
2021/12/26 01:00:04;;;;;;;;;;;3.90;99.90;;;;;;5069250;28;19978;-50
2021/12/26 01:02:31;;;;;;;;;;;3.90;99.90;;;;;;5067710;28;20149;-50
2021/12/26 01:04:57;;;;;;;;;;;3.90;99.90;;;;;;5066179;28;20367;-50
2021/12/26 01:07:34;;;;;;;;;;;3.90;99.90;;;;;;5058923;28;19925;-50
2021/12/26 01:10:04;;;;;;;;;;;4.10;99.90;;;;;;5049524;28;20015;-49
2021/12/26 01:12:31;;;;;;;;;;;4.10;99.90;;;;;;5056379;28;19928;-50
2021/12/26 01:15:03;;;;;;;;;;;4.20;99.90;;;;;;5055649;28;19932;-50
2021/12/26 01:17:30;;;;;;;;;;;4.30;99.90;;;;;;5058844;28;19972;-50
2021/12/26 01:19:57;;;;;;;;;;;4.40;99.90;;;;;;5066797;28;19924;-50
2021/12/26 01:22:26;;;;;;;;;;;4.50;99.90;;;;;;5071894;28;19970;-49
2021/12/26 01:24:55;;;;;;;;;;;4.40;99.90;;;;;;5061162;28;19935;-50
2021/12/26 01:27:24;;;;;;;;;;;4.50;99.90;;;;;;5072510;28;19929;-49
2021/12/26 01:29:51;;;;;;;;;;;4.50;99.90;;;;;;5064751;28;19937;-51
2021/12/26 01:32:18;;;;;;;;;;;4.50;99.90;;;;;;5055796;28;19937;-50
2021/12/26 01:34:45;;;;;;;;;;;4.40;99.90;;;;;;5080443;28;19924;-49
2021/12/26 01:37:11;;;;;;;;;;;4.30;99.90;;;;;;5079558;28;19989;-50
2021/12/26 01:39:38;;;;;;;;;;;4.30;99.90;;;;;;5072149;28;19986;-50
2021/12/26 01:42:05;;;;;;;;;;;4.20;99.90;;;;;;5071552;28;19928;-49
2021/12/26 01:44:34;;;;;;;;;;;4.30;99.90;;;;;;5071435;28;19925;-49
2021/12/26 01:47:02;;;;;;;;;;;4.30;99.90;;;;;;5087851;28;19974;-50
2021/12/26 01:49:29;;;;;;;;;;;4.30;99.90;;;;;;5067926;28;19929;-49
2021/12/26 01:51:58;;;;;;;;;;;4.30;99.90;;;;;;5058971;28;19928;-49
2021/12/26 01:54:31;;;;;;;;;;;4.20;99.90;;;;;;5083961;28;19970;-50
2021/12/26 01:56:58;;;;;;;;;;;4.40;99.90;;;;;;5085069;28;19935;-50
2021/12/26 01:59:25;;;;;;;;;;;4.50;99.90;;;;;;5072361;28;19993;-49
2021/12/26 02:01:55;;;;;;;;;;;4.50;99.90;;;;;;5070365;28;19970;-50
2021/12/26 02:04:22;;;;;;;;;;;4.50;99.90;;;;;;5066413;28;19925;-50
2021/12/26 02:06:48;;;;;;;;;;;4.50;99.90;;;;;;5067372;28;20043;-50
2021/12/26 02:09:16;;;;;;;;;;;4.60;99.90;;;;;;5052283;28;19990;-49
2021/12/26 02:11:42;;;;;;;;;;;4.60;99.90;;;;;;5072101;28;19925;-50
2021/12/26 02:14:09;;;;;;;;;;;4.60;99.90;;;;;;5065414;28;19990;-49
2021/12/26 02:16:36;;;;;;;;;;;4.70;99.90;;;;;;5051965;28;19929;-50
2021/12/26 02:19:04;;;;;;;;;;;4.60;99.90;;;;;;5067047;28;19924;-50
2021/12/26 02:21:51;;;;;;;;;;;4.70;99.90;;;;;;5071530;28;19928;-49
2021/12/26 02:24:24;;;;;;;;;;;4.60;99.90;;;;;;5064522;28;19928;-49
2021/12/26 02:29:35;;;;;;;;;;;4.60;99.90;;;;;;5069804;28;20384;-49
2021/12/26 02:32:02;;;;;;;;;;;4.70;99.90;;;;;;5071318;28;20068;-48
2021/12/26 02:34:28;;;;;;;;;;;4.60;99.90;;;;;;5062927;28;19924;-48
2021/12/26 02:36:56;;;;;;;;;;;4.40;99.90;;;;;;5067752;28;19925;-49
2021/12/26 02:39:23;;;;;;;;;;;4.20;99.90;;;;;;5062804;28;20547;-49
2021/12/26 02:41:50;;;;;;;;;;;4.20;99.90;;;;;;5081853;28;20308;-50
2021/12/26 02:44:17;;;;;;;;;;;4.30;99.90;;;;;;5062549;28;19978;-49
2021/12/26 02:46:44;;;;;;;;;;;4.20;99.90;;;;;;5078504;28;19928;-49
2021/12/26 02:49:11;;;;;;;;;;;4.20;99.90;;;;;;5091336;28;19932;-49
2021/12/26 02:51:38;;;;;;;;;;;4.10;99.90;;;;;;5068811;28;19925;-48
2021/12/26 02:54:06;;;;;;;;;;;4.10;99.90;;;;;;5067128;28;19989;-49
2021/12/26 02:56:34;;;;;;;;;;;4.10;99.90;;;;;;5071605;28;19993;-49
2021/12/26 02:59:00;;;;;;;;;;;4.10;99.90;;;;;;5070930;28;20317;-49
2021/12/26 03:01:29;;;;;;;;;;;4.00;99.90;;;;;;5080043;28;19924;-50
2021/12/26 03:03:55;;;;;;;;;;;4.10;99.90;;;;;;5088769;28;19930;-50
2021/12/26 03:06:28;;;;;;;;;;;4.10;99.90;;;;;;5051294;28;20001;-50
2021/12/26 03:08:55;;;;;;;;;;;4.20;99.90;;;;;;5053756;28;19932;-49
2021/12/26 03:11:23;;;;;;;;;;;4.30;99.90;;;;;;5068570;28;19946;-49
2021/12/26 03:13:50;;;;;;;;;;;4.20;99.90;;;;;;5071870;28;20072;-50
2021/12/26 03:16:17;;;;;;;;;;;4.20;99.90;;;;;;5068637;28;19936;-49
2021/12/26 03:18:44;;;;;;;;;;;4.20;99.90;;;;;;5070532;28;19928;-50
2021/12/26 03:21:11;;;;;;;;;;;4.20;99.90;;;;;;5063235;28;19924;-49
2021/12/26 03:23:37;;;;;;;;;;;4.20;99.90;;;;;;5062381;28;20018;-49
2021/12/26 03:26:07;;;;;;;;;;;4.20;99.90;;;;;;5066603;28;20456;-50
2021/12/26 03:28:36;;;;;;;;;;;4.30;99.90;;;;;;5070867;28;19978;-49
2021/12/26 03:31:03;;;;;;;;;;;4.30;99.90;;;;;;5066275;28;20341;-50
2021/12/26 03:33:30;;;;;;;;;;;4.30;99.90;;;;;;5069643;28;19982;-49
2021/12/26 03:35:59;;;;;;;;;;;4.20;99.90;;;;;;5088624;28;19981;-49
2021/12/26 03:38:28;;;;;;;;;;;4.30;99.90;;;;;;5070737;28;20361;-50
2021/12/26 03:40:56;;;;;;;;;;;4.20;99.90;;;;;;5069550;28;19924;-48
2021/12/26 03:43:23;;;;;;;;;;;4.20;99.90;;;;;;5071800;28;19997;-50
2021/12/26 03:45:52;;;;;;;;;;;4.30;99.90;;;;;;5070470;28;19990;-50
2021/12/26 03:48:21;;;;;;;;;;;4.30;99.90;;;;;;5074888;28;19932;-49
2021/12/26 03:50:47;;;;;;;;;;;4.30;99.90;;;;;;5071592;28;20000;-50
2021/12/26 03:53:15;;;;;;;;;;;4.40;99.90;;;;;;5090141;28;20397;-50
2021/12/26 03:55:42;;;;;;;;;;;4.40;99.90;;;;;;5090821;28;20296;-49
2021/12/26 03:58:09;;;;;;;;;;;4.30;99.90;;;;;;5088397;28;20320;-50
2021/12/26 04:00:37;;;;;;;;;;;4.30;99.90;;;;;;5090385;28;19985;-49
2021/12/26 04:03:05;;;;;;;;;;;4.30;99.90;;;;;;5079678;28;20288;-49
2021/12/26 04:05:32;;;;;;;;;;;4.30;99.90;;;;;;5070582;28;20385;-50
2021/12/26 04:07:59;;;;;;;;;;;4.40;99.90;;;;;;5070296;28;19999;-50
2021/12/26 04:10:26;;;;;;;;;;;4.30;99.90;;;;;;5085133;28;20064;-50
2021/12/26 04:12:54;;;;;;;;;;;4.30;99.90;;;;;;5090034;28;19978;-51
2021/12/26 04:15:22;;;;;;;;;;;4.40;99.90;;;;;;5090144;28;20027;-50
2021/12/26 04:17:49;;;;;;;;;;;4.40;99.90;;;;;;5077630;28;20430;-50
2021/12/26 04:20:17;;;;;;;;;;;4.40;99.90;;;;;;5058243;28;19929;-49
2021/12/26 04:22:44;;;;;;;;;;;4.30;99.90;;;;;;5069992;28;19982;-49
2021/12/26 04:25:11;;;;;;;;;;;4.50;99.90;;;;;;5072030;28;19997;-50
2021/12/26 04:27:38;;;;;;;;;;;4.50;99.90;;;;;;5087832;28;19959;-49
2021/12/26 04:30:06;;;;;;;;;;;4.50;99.90;;;;;;5090364;28;20367;-49
2021/12/26 04:32:33;;;;;;;;;;;4.50;99.90;;;;;;5072339;28;19932;-50
2021/12/26 04:34:59;;;;;;;;;;;4.50;99.90;;;;;;5070008;28;20293;-50
2021/12/26 04:37:28;;;;;;;;;;;4.60;99.90;;;;;;5073625;28;19929;-49
2021/12/26 04:39:54;;;;;;;;;;;4.50;99.90;;;;;;5072304;28;19928;-50
2021/12/26 04:42:22;;;;;;;;;;;4.50;99.90;;;;;;5069186;28;19928;-50
2021/12/26 04:44:51;;;;;;;;;;;4.40;99.90;;;;;;5069482;28;19970;-50
2021/12/26 04:47:18;;;;;;;;;;;4.40;99.90;;;;;;5069424;28;19924;-50
2021/12/26 04:49:45;;;;;;;;;;;4.50;99.90;;;;;;5068636;28;20130;-50
2021/12/26 04:52:11;;;;;;;;;;;4.60;99.90;;;;;;5075751;22;19924;-51
2021/12/26 04:54:40;;;;;;;;;;;4.60;99.90;;;;;;5073319;28;19928;-51
2021/12/26 04:57:07;;;;;;;;;;;4.60;99.90;;;;;;5075866;28;20278;-48
2021/12/26 04:59:33;;;;;;;;;;;4.50;99.90;;;;;;5075173;28;20002;-48
2021/12/26 05:02:01;;;;;;;;;;;4.50;99.90;;;;;;5074996;28;19970;-49
2021/12/26 05:04:27;;;;;;;;;;;4.60;99.90;;;;;;5075328;28;20384;-48
2021/12/26 05:06:54;;;;;;;;;;;4.50;99.90;;;;;;5071247;28;20341;-49
2021/12/26 05:09:21;;;;;;;;;;;4.50;99.90;;;;;;5075582;28;20463;-47
2021/12/26 05:11:50;;;;;;;;;;;4.60;99.90;;;;;;5075205;28;19970;-49
2021/12/26 05:14:17;;;;;;;;;;;4.60;99.90;;;;;;5073785;28;20353;-48
2021/12/26 05:16:43;;;;;;;;;;;4.60;99.90;;;;;;5075127;28;19924;-48
2021/12/26 05:19:10;;;;;;;;;;;4.60;99.90;;;;;;5074867;28;20002;-48
2021/12/26 05:21:37;;;;;;;;;;;4.60;99.90;;;;;;5072770;28;19978;-47
2021/12/26 05:24:04;;;;;;;;;;;4.60;99.90;;;;;;5062114;28;19929;-48
2021/12/26 05:26:31;;;;;;;;;;;4.60;99.90;;;;;;5056030;28;19925;-48
2021/12/26 05:28:59;;;;;;;;;;;4.70;99.90;;;;;;5070883;28;19936;-48
2021/12/26 05:31:26;;;;;;;;;;;4.80;99.90;;;;;;5074527;28;20445;-47
2021/12/26 05:33:53;;;;;;;;;;;4.70;99.90;;;;;;5073084;28;19924;-47
2021/12/26 05:36:20;;;;;;;;;;;4.60;99.90;;;;;;5069963;28;19953;-48
2021/12/26 05:38:47;;;;;;;;;;;4.40;99.90;;;;;;5054638;28;20066;-48
2021/12/26 05:41:13;;;;;;;;;;;4.30;99.90;;;;;;5054492;28;19932;-48
2021/12/26 05:43:40;;;;;;;;;;;4.30;99.90;;;;;;5064781;28;19925;-49
2021/12/26 05:46:09;;;;;;;;;;;4.20;99.90;;;;;;5060319;28;20370;-49
2021/12/26 05:48:36;;;;;;;;;;;4.20;99.90;;;;;;5059554;28;20392;-48
2021/12/26 05:51:02;;;;;;;;;;;4.20;99.90;;;;;;5055134;28;19929;-48
2021/12/26 05:53:29;;;;;;;;;;;4.30;99.90;;;;;;5052967;28;19979;-48
2021/12/26 05:55:56;;;;;;;;;;;4.40;99.90;;;;;;5052637;28;19928;-47
2021/12/26 05:58:23;;;;;;;;;;;4.40;99.90;;;;;;5052319;28;21297;-48
2021/12/26 06:00:50;;;;;;;;;;;4.50;99.90;;;;;;5053643;28;20409;-48
2021/12/26 06:03:18;;;;;;;;;;;4.50;99.90;;;;;;5051684;28;19925;-48
2021/12/26 06:05:45;;;;;;;;;;;4.60;99.90;;;;;;5053019;28;19974;-49
2021/12/26 06:08:12;;;;;;;;;;;4.60;99.90;;;;;;5053087;28;20042;-48
2021/12/26 06:10:39;;;;;;;;;;;4.60;99.90;;;;;;5053049;28;19933;-48
2021/12/26 06:13:06;;;;;;;;;;;4.60;99.90;;;;;;5051887;28;20360;-48
2021/12/26 06:15:32;;;;;;;;;;;4.60;99.90;;;;;;5051137;28;19924;-47
2021/12/26 06:17:59;;;;;;;;;;;4.50;99.90;;;;;;5054069;28;20386;-48
2021/12/26 06:20:27;;;;;;;;;;;4.50;99.90;;;;;;5069716;28;19978;-49
2021/12/26 06:22:54;;;;;;;;;;;4.50;99.90;;;;;;5072266;28;20341;-48
2021/12/26 06:25:21;;;;;;;;;;;4.50;99.90;;;;;;5056634;28;20365;-48
2021/12/26 06:27:48;;;;;;;;;;;4.50;99.90;;;;;;5053877;28;19932;-49
2021/12/26 06:30:15;;;;;;;;;;;4.50;99.90;;;;;;5053231;28;20338;-48
2021/12/26 06:32:42;;;;;;;;;;;4.40;99.90;;;;;;5056143;28;19925;-49
2021/12/26 06:35:09;;;;;;;;;;;4.40;99.90;;;;;;5048266;28;20358;-49
2021/12/26 06:37:38;;;;;;;;;;;4.50;99.90;;;;;;5051020;28;19924;-49
2021/12/26 06:40:06;;;;;;;;;;;4.50;99.90;;;;;;5045762;28;19925;-48
2021/12/26 06:42:35;;;;;;;;;;;4.40;99.90;;;;;;5060611;28;19924;-49
2021/12/26 06:45:02;;;;;;;;;;;4.40;99.90;;;;;;5058667;28;20370;-49
2021/12/26 06:47:29;;;;;;;;;;;4.30;99.90;;;;;;5053278;28;19925;-53
2021/12/26 06:49:56;;;;;;;;;;;4.30;99.90;;;;;;5053088;28;19984;-49
2021/12/26 06:52:23;;;;;;;;;;;4.30;99.90;;;;;;5052738;28;19932;-49
2021/12/26 06:54:51;;;;;;;;;;;4.40;99.90;;;;;;5051044;28;19932;-49
2021/12/26 06:57:18;;;;;;;;;;;4.30;99.90;;;;;;5050716;28;19924;-50
2021/12/26 06:59:44;;;;;;;;;;;4.30;99.90;;;;;;5053401;28;19986;-49
2021/12/26 07:02:11;;;;;;;;;;;4.30;99.90;;;;;;5053749;28;19979;-51
2021/12/26 07:04:38;;;;;;;;;;;4.30;99.90;;;;;;5053251;28;19925;-50
2021/12/26 07:07:05;;;;;;;;;;;4.40;99.90;;;;;;5053056;28;20023;-49
2021/12/26 07:09:32;;;;;;;;;;;4.50;99.90;;;;;;5052880;28;19974;-50
2021/12/26 07:12:00;;;;;;;;;;;4.50;99.90;;;;;;5052728;28;19971;-50
2021/12/26 07:14:26;;;;;;;;;;;4.50;99.90;;;;;;5048436;28;19971;-49
2021/12/26 07:16:53;;;;;;;;;;;4.60;99.90;;;;;;5053843;28;19924;-48
2021/12/26 07:19:20;;;;;;;;;;;4.60;99.90;;;;;;5055799;28;20283;-50
2021/12/26 07:21:47;;;;;;;;;;;4.60;99.90;;;;;;5059514;28;19925;-49
2021/12/26 07:24:17;;;;;;;;;;;4.60;99.90;;;;;;5056144;28;19958;-49
2021/12/26 07:26:44;;;;;;;;;;;4.60;99.90;;;;;;5052634;28;19924;-49
2021/12/26 07:29:12;;;;;;;;;;;4.60;99.90;;;;;;5052508;28;19925;-50
2021/12/26 07:31:38;;;;;;;;;;;4.70;99.90;;;;;;5039380;28;20375;-49
2021/12/26 07:34:05;;;;;;;;;;;4.70;99.90;;;;;;5049586;28;19929;-49
2021/12/26 07:36:32;;;;;;;;;;;4.50;99.90;;;;;;5052477;28;19978;-49
2021/12/26 07:38:59;;;;;;;;;;;4.60;99.90;;;;;;5051873;28;19925;-49
2021/12/26 07:41:25;;;;;;;;;;;4.60;99.90;;;;;;5051846;28;19929;-49
2021/12/26 07:43:52;;;;;;;;;;;4.60;99.90;;;;;;5049023;28;19986;-49
2021/12/26 07:46:21;;;;;;;;;;;4.50;99.90;;;;;;5051582;28;19925;-49
2021/12/26 07:48:47;;;;;;;;;;;4.50;99.90;;;;;;5051486;28;19970;-49
2021/12/26 07:51:14;;;;;;;;;;;4.50;99.90;;;;;;5051595;28;19924;-48
2021/12/26 08:11:43;;;;;;;;;;;4.60;99.90;;;;;;5048901;28;19978;-49
2021/12/26 08:14:10;;;;;;;;;;;4.60;99.90;;;;;;5062752;28;19924;-49
2021/12/26 08:16:37;;;;;;;;;;;4.70;99.90;;;;;;5065478;28;20024;-49
2021/12/26 08:19:06;;;;;;;;;;;4.70;99.90;;;;;;5068780;28;19986;-49
2021/12/26 08:21:33;;;;;;;;;;;4.80;99.90;;;;;;5068078;28;20404;-50
2021/12/26 08:24:00;;;;;;;;;;;4.80;99.90;;;;;;5068154;28;20312;-50
2021/12/26 08:26:27;;;;;;;;;;;4.80;99.90;;;;;;5067715;28;19978;-49
2021/12/26 08:28:55;;;;;;;;;;;4.80;99.90;;;;;;5068822;28;20252;-49
2021/12/26 08:31:22;;;;;;;;;;;4.80;99.90;;;;;;5068293;28;19924;-49
2021/12/26 08:33:49;;;;;;;;;;;4.70;99.90;;;;;;5068737;28;19931;-50
2021/12/26 08:36:19;;;;;;;;;;;4.80;99.90;;;;;;5068828;28;19925;-49
2021/12/26 08:38:45;;;;;;;;;;;4.80;99.90;;;;;;5068500;28;20015;-49
2021/12/26 08:41:12;;;;;;;;;;;4.80;99.90;;;;;;5068648;28;19982;-50
2021/12/26 08:43:42;;;;;;;;;;;4.80;99.90;;;;;;5068131;28;19978;-50
2021/12/26 08:46:10;;;;;;;;;;;4.80;99.90;;;;;;5068582;28;19939;-50
2021/12/26 08:48:37;;;;;;;;;;;4.80;99.90;;;;;;5068512;28;19924;-49
2021/12/26 08:51:04;;;;;;;;;;;4.80;99.90;;;;;;5068013;28;20018;-51
2021/12/26 08:53:31;;;;;;;;;;;4.80;99.90;;;;;;5068036;28;19925;-51
2021/12/26 08:55:59;;;;;;;;;;;4.80;99.90;;;;;;5068533;28;19928;-50
2021/12/26 08:58:26;;;;;;;;;;;4.70;99.90;;;;;;5068502;28;19924;-51
2021/12/26 09:00:53;;;;;;;;;;;4.70;99.90;;;;;;5068177;28;19932;-49
2021/12/26 09:03:21;;;;;;;;;;;4.60;99.90;;;;;;5067212;28;20050;-51
2021/12/26 09:05:47;;;;;;;;;;;4.70;99.90;;;;;;5066126;28;19951;-50
2021/12/26 09:08:14;;;;;;;;;;;4.70;99.90;;;;;;5066178;28;19994;-51
2021/12/26 09:10:42;;;;;;;;;;;4.80;99.90;;;;;;5066808;28;19936;-50
2021/12/26 09:13:09;;;;;;;;;;;4.90;99.90;;;;;;5067404;28;19924;-50
2021/12/26 09:15:38;;;;;;;;;;;4.80;99.90;;;;;;5066922;28;19978;-50
2021/12/26 09:18:05;;;;;;;;;;;4.90;99.90;;;;;;5067292;28;19931;-51
2021/12/26 09:20:33;;;;;;;;;;;4.80;99.90;;;;;;5067987;28;19929;-50
2021/12/26 09:23:00;;;;;;;;;;;4.80;99.90;;;;;;5067404;28;19948;-50
2021/12/26 09:25:26;;;;;;;;;;;4.90;99.90;;;;;;5068226;28;19986;-50
2021/12/26 09:27:53;;;;;;;;;;;4.90;99.90;;;;;;5067737;28;19924;-51
2021/12/26 09:30:20;;;;;;;;;;;4.90;99.90;;;;;;5067635;28;19928;-49
2021/12/26 09:32:49;;;;;;;;;;;4.80;99.90;;;;;;5067602;28;19936;-50
2021/12/26 09:35:17;;;;;;;;;;;4.80;99.90;;;;;;5064251;28;19928;-50
2021/12/26 09:37:48;;;;;;;;;;;4.90;99.90;;;;;;5064839;28;19935;-51
2021/12/26 09:40:15;;;;;;;;;;;5.00;99.90;;;;;;5070157;28;19940;-50
2021/12/26 09:42:43;;;;;;;;;;;5.10;99.90;;;;;;5071030;28;19929;-50
2021/12/26 09:45:10;;;;;;;;;;;5.10;99.90;;;;;;5071075;28;19940;-49
2021/12/26 09:47:40;;;;;;;;;;;5.10;99.90;;;;;;5071897;28;19924;-50
2021/12/26 09:50:07;;;;;;;;;;;5.10;99.90;;;;;;5071430;28;20346;-50
2021/12/26 09:52:34;;;;;;;;;;;5.10;99.90;;;;;;5071070;28;20365;-49
2021/12/26 09:55:03;;;;;;;;;;;5.00;99.90;;;;;;5072234;28;20023;-51
2021/12/26 09:57:30;;;;;;;;;;;5.00;99.90;;;;;;5071933;28;19929;-50
2021/12/26 09:59:56;;;;;;;;;;;5.10;99.90;;;;;;5071846;28;19928;-50
2021/12/26 10:02:23;;;;;;;;;;;5.00;99.90;;;;;;5071539;28;19928;-50
2021/12/26 10:04:51;;;;;;;;;;;5.10;99.90;;;;;;5072191;28;19932;-51
2021/12/26 10:07:20;;;;;;;;;;;5.20;99.90;;;;;;5079368;28;19936;-51
2021/12/26 10:09:49;;;;;;;;;;;5.30;99.90;;;;;;5071829;28;20415;-51
2021/12/26 10:12:19;;;;;;;;;;;5.30;99.90;;;;;;5071377;28;19928;-51
2021/12/26 10:14:48;;;;;;;;;;;5.40;99.90;;;;;;5071865;28;20392;-51
2021/12/26 10:17:17;;;;;;;;;;;5.50;99.90;;;;;;5071938;28;19924;-51
2021/12/26 10:19:45;;;;;;;;;;;5.60;99.90;;;;;;5071753;28;19966;-51
2021/12/26 10:22:13;;;;;;;;;;;5.60;99.90;;;;;;5070848;28;19974;-51
2021/12/26 10:24:41;;;;;;;;;;;5.60;99.90;;;;;;5071015;28;20304;-51
2021/12/26 10:27:09;;;;;;;;;;;5.70;99.90;;;;;;5070492;28;19925;-50
2021/12/26 10:29:39;;;;;;;;;;;5.60;99.90;;;;;;5070408;28;20396;-50
2021/12/26 10:32:07;;;;;;;;;;;5.70;99.90;;;;;;5070059;28;19924;-50
2021/12/26 10:34:36;;;;;;;;;;;5.60;99.90;;;;;;5051106;28;19970;-50
2021/12/26 10:37:04;;;;;;;;;;;5.60;99.90;;;;;;5069525;28;19932;-51
2021/12/26 10:39:32;;;;;;;;;;;5.60;99.90;;;;;;5070685;28;20005;-50
2021/12/26 10:42:00;;;;;;;;;;;5.40;99.90;;;;;;5070149;28;20065;-51
2021/12/26 10:44:30;;;;;;;;;;;5.40;99.90;;;;;;5065186;28;19971;-50
2021/12/26 10:46:59;;;;;;;;;;;5.50;99.90;;;;;;5071098;28;20018;-50
2021/12/26 10:49:33;;;;;;;;;;;5.40;99.90;;;;;;5070314;28;19932;-50
2021/12/26 10:52:00;;;;;;;;;;;5.40;99.90;;;;;;5070715;28;19990;-49
2021/12/26 10:54:31;;;;;;;;;;;5.40;99.90;;;;;;5070907;28;19932;-51
2021/12/26 10:57:10;;;;;;;;;;;5.60;99.90;;;;;;5070129;28;19924;-51
2021/12/26 10:59:38;;;;;;;;;;;5.60;99.90;;;;;;5070809;28;19932;-50
2021/12/26 11:02:07;;;;;;;;;;;5.70;99.90;;;;;;5069716;28;20372;-51
2021/12/26 11:04:35;;;;;;;;;;;5.60;99.90;;;;;;5055578;28;20338;-51
2021/12/26 11:07:03;;;;;;;;;;;5.60;99.90;;;;;;5068704;28;19925;-51
2021/12/26 11:09:31;;;;;;;;;;;5.70;99.90;;;;;;5070029;28;20007;-51
2021/12/26 11:11:59;;;;;;;;;;;5.80;99.90;;;;;;5070466;28;20027;-51
2021/12/26 11:14:25;;;;;;;;;;;5.70;99.90;;;;;;5067213;28;20007;-50
2021/12/26 11:16:52;;;;;;;;;;;5.60;99.90;;;;;;5069605;28;19924;-50
2021/12/26 11:19:34;;;;;;;;;;;5.60;99.90;;;;;;5078086;28;19940;-50
2021/12/26 11:22:03;;;;;;;;;;;5.70;99.90;;;;;;5061240;28;20358;-49
2021/12/26 11:24:30;;;;;;;;;;;5.70;99.90;;;;;;5070453;28;19924;-49
2021/12/26 11:26:56;;;;;;;;;;;5.70;99.90;;;;;;5070628;28;19928;-50
2021/12/26 11:29:23;;;;;;;;;;;5.80;99.90;;;;;;5069583;28;20393;-49
2021/12/26 11:31:53;;;;;;;;;;;5.80;99.90;;;;;;5069837;28;20363;-50
2021/12/26 11:34:20;;;;;;;;;;;5.90;99.90;;;;;;5053391;28;20282;-50
2021/12/26 11:36:50;;;;;;;;;;;5.90;99.90;;;;;;5066033;28;20423;-50
2021/12/26 11:39:18;;;;;;;;;;;5.90;99.90;;;;;;5069817;28;19929;-50
2021/12/26 11:41:51;;;;;;;;;;;5.90;99.90;;;;;;5069793;28;19928;-50
2021/12/26 11:44:26;;;;;;;;;;;5.90;99.90;;;;;;5070174;28;20335;-50
2021/12/26 11:47:02;;;;;;;;;;;5.80;99.90;;;;;;5069797;28;20073;-50
2021/12/26 11:49:40;;;;;;;;;;;5.70;99.90;;;;;;5069343;28;19978;-49
2021/12/26 11:52:15;;;;;;;;;;;5.60;99.90;;;;;;5069244;28;19932;-50
2021/12/26 11:54:53;;;;;;;;;;;5.50;99.90;;;;;;5069602;28;19924;-50
2021/12/26 11:57:38;;;;;;;;;;;5.40;99.90;;;;;;5068912;28;20439;-50
2021/12/26 12:00:10;;;;;;;;;;;5.50;99.90;;;;;;5067801;28;19924;-50
2021/12/26 12:02:38;;;;;;;;;;;5.50;99.90;;;;;;5066298;28;19928;-50
2021/12/26 12:05:14;;;;;;;;;;;5.60;99.90;;;;;;5073215;28;19924;-50
2021/12/26 12:08:00;;;;;;;;;;;5.60;99.90;;;;;;5075450;28;19942;-50
2021/12/26 12:10:36;;;;;;;;;;;5.60;99.90;;;;;;5049657;28;19929;-50
2021/12/26 12:13:04;;;;;;;;;;;5.60;99.90;;;;;;5070518;28;20277;-51
2021/12/26 12:15:44;;;;;;;;;;;5.70;99.90;;;;;;5068217;28;20443;-50
2021/12/26 12:18:12;;;;;;;;;;;5.80;99.90;;;;;;5069104;28;20301;-50
2021/12/26 12:20:39;;;;;;;;;;;5.80;99.90;;;;;;5069608;28;19925;-50
2021/12/26 12:23:14;;;;;;;;;;;5.80;99.90;;;;;;5067802;28;20640;-50
2021/12/26 12:25:49;;;;;;;;;;;5.80;99.90;;;;;;5068929;28;20373;-49
2021/12/26 12:28:17;;;;;;;;;;;5.80;99.90;;;;;;5068341;28;20499;-50
2021/12/26 12:30:45;;;;;;;;;;;5.70;99.90;;;;;;5070315;28;20557;-50
2021/12/26 12:33:13;;;;;;;;;;;5.70;99.90;;;;;;5068675;28;19924;-50
2021/12/26 12:35:48;;;;;;;;;;;5.80;99.90;;;;;;5068137;28;19924;-50
2021/12/26 12:38:22;;;;;;;;;;;5.90;99.90;;;;;;5063893;28;20362;-50
2021/12/26 12:40:50;;;;;;;;;;;5.80;99.90;;;;;;5068697;28;19928;-50
2021/12/26 12:43:18;;;;;;;;;;;5.90;99.90;;;;;;5067737;28;19933;-50
2021/12/26 12:46:06;;;;;;;;;;;5.90;99.90;;;;;;5068222;28;19940;-50
2021/12/26 12:48:38;;;;;;;;;;;6.00;99.90;;;;;;5061516;28;19932;-50
2021/12/26 12:51:25;;;;;;;;;;;6.10;99.90;;;;;;5068343;28;19943;-50
2021/12/26 12:53:54;;;;;;;;;;;6.00;99.90;;;;;;5068858;28;20005;-50
2021/12/26 12:56:44;;;;;;;;;;;6.00;99.90;;;;;;5068613;28;19940;-49
2021/12/26 12:59:29;;;;;;;;;;;6.10;99.90;;;;;;5064039;28;20361;-50
2021/12/26 13:01:56;;;;;;;;;;;6.10;99.90;;;;;;5064613;28;20009;-50
2021/12/26 13:04:24;;;;;;;;;;;6.20;99.90;;;;;;5063156;28;19937;-49
2021/12/26 13:06:51;;;;;;;;;;;6.10;99.90;;;;;;5068751;28;19932;-50
2021/12/26 13:09:18;;;;;;;;;;;6.00;99.90;;;;;;5068424;28;20459;-49
2021/12/26 13:11:46;;;;;;;;;;;5.90;99.90;;;;;;5068607;28;19985;-49
2021/12/26 13:14:13;;;;;;;;;;;6.00;99.90;;;;;;5071192;28;19928;-49
2021/12/26 13:16:40;;;;;;;;;;;6.00;99.90;;;;;;5072902;28;19986;-49
2021/12/26 13:19:07;;;;;;;;;;;6.20;99.90;;;;;;5072303;28;19929;-49
2021/12/26 13:21:34;;;;;;;;;;;6.20;99.90;;;;;;5073109;28;19924;-49
2021/12/26 13:24:01;;;;;;;;;;;6.20;99.90;;;;;;5071990;28;20309;-50
2021/12/26 13:26:28;;;;;;;;;;;6.00;99.90;;;;;;5071713;28;19973;-49
2021/12/26 13:28:56;;;;;;;;;;;6.20;99.90;;;;;;5071799;28;19940;-49
2021/12/26 13:31:24;;;;;;;;;;;6.00;99.90;;;;;;5071954;28;19924;-49
2021/12/26 13:33:52;;;;;;;;;;;6.10;99.90;;;;;;5070587;28;19936;-49
2021/12/26 13:36:20;;;;;;;;;;;6.20;99.90;;;;;;5072005;28;20411;-49
2021/12/26 13:38:48;;;;;;;;;;;6.20;99.90;;;;;;5071436;28;19929;-49
2021/12/26 13:41:16;;;;;;;;;;;6.10;99.90;;;;;;5071993;28;20334;-50
2021/12/26 13:43:43;;;;;;;;;;;6.20;99.90;;;;;;5071659;28;20253;-49
2021/12/26 13:46:12;;;;;;;;;;;6.30;99.90;;;;;;5071910;28;19924;-49
2021/12/26 13:48:40;;;;;;;;;;;6.50;99.90;;;;;;5071308;28;19925;-49
2021/12/26 13:51:20;;;;;;;;;;;6.50;99.90;;;;;;5071705;28;19998;-49
2021/12/26 13:53:47;;;;;;;;;;;6.60;99.90;;;;;;5072136;28;19975;-52
2021/12/26 13:56:14;;;;;;;;;;;6.50;99.90;;;;;;5071876;28;20462;-52
2021/12/26 13:58:42;;;;;;;;;;;6.70;99.90;;;;;;5070974;28;20446;-51
2021/12/26 14:01:11;;;;;;;;;;;6.80;99.90;;;;;;5070171;28;20251;-52
2021/12/26 14:03:39;;;;;;;;;;;6.90;99.90;;;;;;5071464;28;19932;-52
2021/12/26 14:06:05;;;;;;;;;;;6.90;99.90;;;;;;5072463;28;19928;-52
2021/12/26 14:08:32;;;;;;;;;;;7.00;99.90;;;;;;5071441;28;19925;-52
2021/12/26 14:11:00;;;;;;;;;;;7.20;99.90;;;;;;5053329;28;19925;-51
2021/12/26 14:13:28;;;;;;;;;;;7.20;99.90;;;;;;5052162;28;19986;-50
2021/12/26 14:15:57;;;;;;;;;;;7.20;99.90;;;;;;5061904;28;19987;-51
2021/12/26 14:18:27;;;;;;;;;;;7.30;99.90;;;;;;5071647;28;19990;-51
2021/12/26 14:20:54;;;;;;;;;;;7.20;99.90;;;;;;5071554;28;20033;-52
2021/12/26 14:23:23;;;;;;;;;;;7.10;99.90;;;;;;5071713;28;19978;-51
2021/12/26 14:25:50;;;;;;;;;;;7.00;99.90;;;;;;5069015;28;19924;-51
2021/12/26 14:28:17;;;;;;;;;;;7.00;99.90;;;;;;5069450;28;19954;-52
2021/12/26 14:30:45;;;;;;;;;;;7.10;99.90;;;;;;5068643;28;19924;-52
2021/12/26 14:33:12;;;;;;;;;;;7.00;99.90;;;;;;5068482;28;19929;-52
2021/12/26 14:35:40;;;;;;;;;;;6.90;99.90;;;;;;5068784;28;19997;-52
2021/12/26 14:38:11;;;;;;;;;;;6.80;99.90;;;;;;5068330;28;19986;-51
2021/12/26 14:40:49;;;;;;;;;;;6.80;99.90;;;;;;5084050;28;20422;-51
2021/12/26 14:43:17;;;;;;;;;;;6.70;99.90;;;;;;5065079;28;20011;-51
2021/12/26 14:45:49;;;;;;;;;;;6.60;99.90;;;;;;5071172;28;20258;-51
2021/12/26 14:48:29;;;;;;;;;;;6.60;99.90;;;;;;5070488;28;19924;-48
2021/12/26 14:51:07;;;;;;;;;;;6.60;99.90;;;;;;5070186;28;19932;-48
2021/12/26 14:53:35;;;;;;;;;;;6.50;99.90;;;;;;5070146;28;19990;-49
2021/12/26 14:56:02;;;;;;;;;;;6.40;99.90;;;;;;5070988;28;20008;-49
2021/12/26 14:58:38;;;;;;;;;;;6.40;99.90;;;;;;5070484;28;20412;-48